sensor_id;sensor_type;location;lat;lon;timestamp;pressure;altitude;pressure_sealevel;temperature;humidity
71915;BME280;60387;49.994;14.660;2023-09-30T00:01:25;98033.44;;;25.74;36.42
71915;BME280;60387;49.994;14.660;2023-09-30T00:03:58;98039.00;;;25.78;37.43
71915;BME280;60387;49.994;14.660;2023-09-30T00:06:31;98037.81;;;25.75;37.35
71915;BME280;60387;49.994;14.660;2023-09-30T00:09:04;98046.50;;;25.74;38.45
71915;BME280;60387;49.994;14.660;2023-09-30T00:11:38;98037.78;;;25.72;37.62
71915;BME280;60387;49.994;14.660;2023-09-30T00:14:11;98041.75;;;25.71;37.46
71915;BME280;60387;49.994;14.660;2023-09-30T00:16:44;98046.13;;;25.72;38.79
71915;BME280;60387;49.994;14.660;2023-09-30T00:19:17;98051.28;;;25.70;37.32
71915;BME280;60387;49.994;14.660;2023-09-30T00:21:51;98048.50;;;25.70;37.46
71915;BME280;60387;49.994;14.660;2023-09-30T00:24:24;98049.66;;;25.69;37.88
71915;BME280;60387;49.994;14.660;2023-09-30T00:26:57;98052.03;;;25.67;37.70
71915;BME280;60387;49.994;14.660;2023-09-30T00:29:31;98050.44;;;25.66;39.02
71915;BME280;60387;49.994;14.660;2023-09-30T00:32:04;98050.03;;;25.60;38.28
71915;BME280;60387;49.994;14.660;2023-09-30T00:34:37;98055.22;;;25.62;38.90
71915;BME280;60387;49.994;14.660;2023-09-30T00:37:11;98057.16;;;25.58;39.55
71915;BME280;60387;49.994;14.660;2023-09-30T00:39:44;98060.75;;;25.58;39.17
71915;BME280;60387;49.994;14.660;2023-09-30T00:42:17;98059.16;;;25.54;40.91
71915;BME280;60387;49.994;14.660;2023-09-30T00:44:50;98048.03;;;25.50;40.69
71915;BME280;60387;49.994;14.660;2023-09-30T00:47:24;98050.78;;;25.47;39.95
71915;BME280;60387;49.994;14.660;2023-09-30T00:49:59;98058.72;;;25.45;39.67
71915;BME280;60387;49.994;14.660;2023-09-30T00:52:33;98059.09;;;25.43;40.51
71915;BME280;60387;49.994;14.660;2023-09-30T00:55:07;98063.03;;;25.39;40.22
71915;BME280;60387;49.994;14.660;2023-09-30T00:57:41;98054.31;;;25.37;42.58
71915;BME280;60387;49.994;14.660;2023-09-30T01:00:16;98054.69;;;25.32;41.80
71915;BME280;60387;49.994;14.660;2023-09-30T01:02:49;98054.28;;;25.30;43.75
71915;BME280;60387;49.994;14.660;2023-09-30T01:05:23;98068.09;;;25.23;42.19
71915;BME280;60387;49.994;14.660;2023-09-30T01:07:56;98062.13;;;25.21;41.66
71915;BME280;60387;49.994;14.660;2023-09-30T01:10:29;98056.94;;;25.19;42.00
71915;BME280;60387;49.994;14.660;2023-09-30T01:13:03;98069.22;;;25.18;42.04
71915;BME280;60387;49.994;14.660;2023-09-30T01:15:36;98065.25;;;25.16;43.00
71915;BME280;60387;49.994;14.660;2023-09-30T01:18:09;98073.16;;;25.10;42.64
71915;BME280;60387;49.994;14.660;2023-09-30T01:20:42;98069.94;;;25.05;41.80
71915;BME280;60387;49.994;14.660;2023-09-30T01:23:16;98076.69;;;25.04;41.61
71915;BME280;60387;49.994;14.660;2023-09-30T01:25:49;98068.75;;;25.02;42.59
71915;BME280;60387;49.994;14.660;2023-09-30T01:28:22;98079.03;;;24.98;41.59
71915;BME280;60387;49.994;14.660;2023-09-30T01:30:56;98076.97;;;24.92;42.29
71915;BME280;60387;49.994;14.660;2023-09-30T01:33:30;98075.00;;;24.89;42.02
71915;BME280;60387;49.994;14.660;2023-09-30T01:36:03;98066.25;;;24.83;42.49
71915;BME280;60387;49.994;14.660;2023-09-30T01:38:36;98076.13;;;24.81;42.26
71915;BME280;60387;49.994;14.660;2023-09-30T01:41:10;98080.84;;;24.77;41.54
71915;BME280;60387;49.994;14.660;2023-09-30T01:43:43;98075.69;;;24.75;42.32
71915;BME280;60387;49.994;14.660;2023-09-30T01:46:16;98062.94;;;24.64;41.62
71915;BME280;60387;49.994;14.660;2023-09-30T01:48:49;98081.16;;;24.68;42.31
71915;BME280;60387;49.994;14.660;2023-09-30T01:51:23;98066.06;;;24.62;41.71
71915;BME280;60387;49.994;14.660;2023-09-30T01:53:56;98078.34;;;24.61;42.04
71915;BME280;60387;49.994;14.660;2023-09-30T01:56:30;98073.16;;;24.56;41.76
71915;BME280;60387;49.994;14.660;2023-09-30T01:59:04;98064.81;;;24.53;42.41
71915;BME280;60387;49.994;14.660;2023-09-30T02:01:37;98067.91;;;24.48;42.12
71915;BME280;60387;49.994;14.660;2023-09-30T02:04:10;98068.28;;;24.43;41.95
71915;BME280;60387;49.994;14.660;2023-09-30T02:06:43;98075.75;;;24.39;42.29
71915;BME280;60387;49.994;14.660;2023-09-30T02:09:17;98074.91;;;24.31;42.40
71915;BME280;60387;49.994;14.660;2023-09-30T02:11:50;98078.03;;;24.30;42.36
71915;BME280;60387;49.994;14.660;2023-09-30T02:14:23;98088.31;;;24.26;42.54
71915;BME280;60387;49.994;14.660;2023-09-30T02:16:56;98088.59;;;24.17;42.60
71915;BME280;60387;49.994;14.660;2023-09-30T02:19:30;98096.50;;;24.15;43.35
71915;BME280;60387;49.994;14.660;2023-09-30T02:22:03;98090.91;;;24.12;42.25
71915;BME280;60387;49.994;14.660;2023-09-30T02:24:36;98092.88;;;24.08;42.51
71915;BME280;60387;49.994;14.660;2023-09-30T02:27:10;98079.28;;;23.96;42.82
71915;BME280;60387;49.994;14.660;2023-09-30T02:29:43;98100.28;;;24.00;42.98
71915;BME280;60387;49.994;14.660;2023-09-30T02:32:16;98108.53;;;23.97;43.72
71915;BME280;60387;49.994;14.660;2023-09-30T02:34:50;98110.09;;;23.91;43.11
71915;BME280;60387;49.994;14.660;2023-09-30T02:37:23;98108.06;;;23.88;43.29
71915;BME280;60387;49.994;14.660;2023-09-30T02:39:56;98114.75;;;23.87;42.72
71915;BME280;60387;49.994;14.660;2023-09-30T02:42:29;98119.03;;;23.84;42.97
71915;BME280;60387;49.994;14.660;2023-09-30T02:45:04;98115.88;;;23.82;43.91
71915;BME280;60387;49.994;14.660;2023-09-30T02:47:39;98117.81;;;23.78;42.94
71915;BME280;60387;49.994;14.660;2023-09-30T02:50:12;98123.72;;;23.77;43.00
71915;BME280;60387;49.994;14.660;2023-09-30T02:52:45;98126.84;;;23.75;42.84
71915;BME280;60387;49.994;14.660;2023-09-30T02:55:19;98129.56;;;23.72;42.89
71915;BME280;60387;49.994;14.660;2023-09-30T02:57:52;98133.91;;;23.73;42.80
71915;BME280;60387;49.994;14.660;2023-09-30T03:00:25;98139.84;;;23.71;42.67
71915;BME280;60387;49.994;14.660;2023-09-30T03:03:01;98140.63;;;23.72;42.89
71915;BME280;60387;49.994;14.660;2023-09-30T03:05:34;98146.16;;;23.72;43.39
71915;BME280;60387;49.994;14.660;2023-09-30T03:08:07;98132.22;;;23.61;43.77
71915;BME280;60387;49.994;14.660;2023-09-30T03:10:41;98146.47;;;23.63;43.69
71915;BME280;60387;49.994;14.660;2023-09-30T03:13:14;98143.59;;;23.56;43.48
71915;BME280;60387;49.994;14.660;2023-09-30T03:15:47;98164.19;;;23.59;43.94
71915;BME280;60387;49.994;14.660;2023-09-30T03:18:21;98157.78;;;23.55;43.50
71915;BME280;60387;49.994;14.660;2023-09-30T03:20:59;98145.09;;;23.50;43.46
71915;BME280;60387;49.994;14.660;2023-09-30T03:23:32;98160.16;;;23.53;44.08
71915;BME280;60387;49.994;14.660;2023-09-30T03:26:06;98158.16;;;23.50;42.75
71915;BME280;60387;49.994;14.660;2023-09-30T03:28:39;98164.09;;;23.52;42.57
71915;BME280;60387;49.994;14.660;2023-09-30T03:31:12;98161.31;;;23.52;42.98
71915;BME280;60387;49.994;14.660;2023-09-30T03:33:45;98166.44;;;23.50;43.38
71915;BME280;60387;49.994;14.660;2023-09-30T03:36:20;98167.16;;;23.47;43.92
71915;BME280;60387;49.994;14.660;2023-09-30T03:38:53;98170.69;;;23.44;43.33
71915;BME280;60387;49.994;14.660;2023-09-30T03:41:27;98177.41;;;23.43;43.56
71915;BME280;60387;49.994;14.660;2023-09-30T03:44:00;98186.88;;;23.42;43.44
71915;BME280;60387;49.994;14.660;2023-09-30T03:46:33;98184.47;;;23.41;43.79
71915;BME280;60387;49.994;14.660;2023-09-30T03:49:07;98182.88;;;23.40;43.31
71915;BME280;60387;49.994;14.660;2023-09-30T03:51:40;98189.94;;;23.37;43.51
71915;BME280;60387;49.994;14.660;2023-09-30T03:54:14;98184.41;;;23.37;44.35
71915;BME280;60387;49.994;14.660;2023-09-30T03:56:47;98181.59;;;23.34;44.42
71915;BME280;60387;49.994;14.660;2023-09-30T03:59:20;98193.78;;;23.29;43.64
71915;BME280;60387;49.994;14.660;2023-09-30T04:01:53;98185.06;;;23.27;44.03
71915;BME280;60387;49.994;14.660;2023-09-30T04:04:27;98202.41;;;23.24;44.68
71915;BME280;60387;49.994;14.660;2023-09-30T04:07:00;98206.34;;;23.23;44.25
71915;BME280;60387;49.994;14.660;2023-09-30T04:09:33;98205.47;;;23.19;43.96
71915;BME280;60387;49.994;14.660;2023-09-30T04:12:06;98210.22;;;23.19;43.53
71915;BME280;60387;49.994;14.660;2023-09-30T04:14:40;98208.59;;;23.18;44.51
71915;BME280;60387;49.994;14.660;2023-09-30T04:17:13;98212.91;;;23.15;44.03
71915;BME280;60387;49.994;14.660;2023-09-30T04:19:46;98220.41;;;23.15;44.14
71915;BME280;60387;49.994;14.660;2023-09-30T04:22:19;98225.16;;;23.14;44.26
71915;BME280;60387;49.994;14.660;2023-09-30T04:24:53;98231.47;;;23.15;45.27
71915;BME280;60387;49.994;14.660;2023-09-30T04:27:26;98232.13;;;23.08;44.99
71915;BME280;60387;49.994;14.660;2023-09-30T04:29:59;98234.81;;;23.05;45.19
71915;BME280;60387;49.994;14.660;2023-09-30T04:32:32;98243.41;;;23.00;45.56
71915;BME280;60387;49.994;14.660;2023-09-30T04:35:06;98245.31;;;22.96;45.64
71915;BME280;60387;49.994;14.660;2023-09-30T04:37:40;98250.78;;;22.92;44.87
71915;BME280;60387;49.994;14.660;2023-09-30T04:40:13;98257.84;;;22.90;46.11
71915;BME280;60387;49.994;14.660;2023-09-30T04:42:46;98251.91;;;22.88;45.69
71915;BME280;60387;49.994;14.660;2023-09-30T04:45:19;98252.56;;;22.81;46.07
71915;BME280;60387;49.994;14.660;2023-09-30T04:47:53;98252.56;;;22.81;46.00
71915;BME280;60387;49.994;14.660;2023-09-30T04:50:27;98267.09;;;22.78;46.60
71915;BME280;60387;49.994;14.660;2023-09-30T04:53:00;98268.22;;;22.74;46.35
71915;BME280;60387;49.994;14.660;2023-09-30T04:55:33;98271.28;;;22.69;47.08
71915;BME280;60387;49.994;14.660;2023-09-30T04:58:09;98276.75;;;22.65;46.52
71915;BME280;60387;49.994;14.660;2023-09-30T05:00:42;98273.50;;;22.60;48.47
71915;BME280;60387;49.994;14.660;2023-09-30T05:03:16;98283.22;;;22.54;47.89
71915;BME280;60387;49.994;14.660;2023-09-30T05:05:50;98293.47;;;22.53;47.83
71915;BME280;60387;49.994;14.660;2023-09-30T05:08:24;98280.75;;;22.49;48.45
71915;BME280;60387;49.994;14.660;2023-09-30T05:10:57;98290.25;;;22.51;47.15
71915;BME280;60387;49.994;14.660;2023-09-30T05:13:30;98290.25;;;22.51;47.94
71915;BME280;60387;49.994;14.660;2023-09-30T05:16:04;98288.25;;;22.48;48.43
71915;BME280;60387;49.994;14.660;2023-09-30T05:18:37;98289.75;;;22.46;48.02
71915;BME280;60387;49.994;14.660;2023-09-30T05:21:10;98300.00;;;22.45;48.57
71915;BME280;60387;49.994;14.660;2023-09-30T05:23:43;98302.75;;;22.45;47.68
71915;BME280;60387;49.994;14.660;2023-09-30T05:26:17;98313.81;;;22.45;48.02
71915;BME280;60387;49.994;14.660;2023-09-30T05:28:50;98327.25;;;22.47;48.46
71915;BME280;60387;49.994;14.660;2023-09-30T05:31:23;98325.25;;;22.44;49.28
71915;BME280;60387;49.994;14.660;2023-09-30T05:33:56;98328.63;;;22.37;49.81
71915;BME280;60387;49.994;14.660;2023-09-30T05:36:30;98330.50;;;22.14;52.00
71915;BME280;60387;49.994;14.660;2023-09-30T05:39:03;98335.44;;;22.24;49.76
71915;BME280;60387;49.994;14.660;2023-09-30T05:41:38;98343.97;;;22.19;50.24
71915;BME280;60387;49.994;14.660;2023-09-30T05:44:11;98338.88;;;22.02;49.73
71915;BME280;60387;49.994;14.660;2023-09-30T05:46:44;98329.38;;;22.00;50.47
71915;BME280;60387;49.994;14.660;2023-09-30T05:49:17;98342.66;;;21.94;50.89
71915;BME280;60387;49.994;14.660;2023-09-30T05:51:51;98345.59;;;21.86;50.22
71915;BME280;60387;49.994;14.660;2023-09-30T05:54:24;98345.59;;;21.86;51.15
71915;BME280;60387;49.994;14.660;2023-09-30T05:56:57;98350.16;;;21.78;51.92
71915;BME280;60387;49.994;14.660;2023-09-30T05:59:31;98356.59;;;21.67;51.64
71915;BME280;60387;49.994;14.660;2023-09-30T06:02:04;98361.81;;;21.56;51.74
71915;BME280;60387;49.994;14.660;2023-09-30T06:04:37;98365.09;;;21.46;51.13
71915;BME280;60387;49.994;14.660;2023-09-30T06:07:11;98363.66;;;21.37;51.07
71915;BME280;60387;49.994;14.660;2023-09-30T06:09:44;98367.78;;;21.27;51.34
71915;BME280;60387;49.994;14.660;2023-09-30T06:12:17;98374.69;;;21.21;51.77
71915;BME280;60387;49.994;14.660;2023-09-30T06:14:51;98383.94;;;21.13;51.53
71915;BME280;60387;49.994;14.660;2023-09-30T06:17:24;98389.25;;;21.06;51.31
71915;BME280;60387;49.994;14.660;2023-09-30T06:19:57;98391.34;;;20.97;52.33
71915;BME280;60387;49.994;14.660;2023-09-30T06:22:30;98400.25;;;20.91;52.48
71915;BME280;60387;49.994;14.660;2023-09-30T06:25:04;98399.56;;;20.82;51.95
71915;BME280;60387;49.994;14.660;2023-09-30T06:27:37;98406.81;;;20.74;51.51
71915;BME280;60387;49.994;14.660;2023-09-30T06:30:11;98403.88;;;20.67;51.29
71915;BME280;60387;49.994;14.660;2023-09-30T06:32:45;98406.03;;;20.62;51.06
71915;BME280;60387;49.994;14.660;2023-09-30T06:35:18;98418.59;;;20.59;50.37
71915;BME280;60387;49.994;14.660;2023-09-30T06:37:52;98418.59;;;20.59;50.10
71915;BME280;60387;49.994;14.660;2023-09-30T06:40:25;98419.06;;;20.49;49.33
71915;BME280;60387;49.994;14.660;2023-09-30T06:42:58;98418.25;;;20.49;48.48
71915;BME280;60387;49.994;14.660;2023-09-30T06:45:34;98426.84;;;20.47;48.37
71915;BME280;60387;49.994;14.660;2023-09-30T06:48:08;98433.88;;;20.45;47.85
71915;BME280;60387;49.994;14.660;2023-09-30T06:50:45;98417.38;;;20.45;47.61
71915;BME280;60387;49.994;14.660;2023-09-30T06:53:19;98430.88;;;20.50;47.46
71915;BME280;60387;49.994;14.660;2023-09-30T06:55:52;98436.81;;;20.52;47.39
71915;BME280;60387;49.994;14.660;2023-09-30T06:58:26;98431.22;;;20.48;47.24
71915;BME280;60387;49.994;14.660;2023-09-30T07:00:59;98446.13;;;20.47;47.19
71915;BME280;60387;49.994;14.660;2023-09-30T07:03:32;98448.44;;;20.45;47.21
71915;BME280;60387;49.994;14.660;2023-09-30T07:06:05;98459.09;;;20.47;47.17
71915;BME280;60387;49.994;14.660;2023-09-30T07:08:39;98463.34;;;20.44;47.28
71915;BME280;60387;49.994;14.660;2023-09-30T07:11:12;98461.75;;;20.43;47.47
71915;BME280;60387;49.994;14.660;2023-09-30T07:13:45;98470.78;;;20.44;47.76
71915;BME280;60387;49.994;14.660;2023-09-30T07:16:18;98467.91;;;20.40;47.79
71915;BME280;60387;49.994;14.660;2023-09-30T07:18:52;98469.56;;;20.41;47.91
71915;BME280;60387;49.994;14.660;2023-09-30T07:21:25;98466.69;;;20.38;48.17
71915;BME280;60387;49.994;14.660;2023-09-30T07:23:58;98482.59;;;20.44;48.07
71915;BME280;60387;49.994;14.660;2023-09-30T07:26:31;98482.28;;;20.46;48.09
71915;BME280;60387;49.994;14.660;2023-09-30T07:29:05;98491.19;;;20.43;47.97
71915;BME280;60387;49.994;14.660;2023-09-30T07:31:38;98496.72;;;20.43;47.82
71915;BME280;60387;49.994;14.660;2023-09-30T07:34:11;98502.22;;;20.43;48.17
71915;BME280;60387;49.994;14.660;2023-09-30T07:36:46;98492.69;;;20.40;47.56
71915;BME280;60387;49.994;14.660;2023-09-30T07:39:19;98498.09;;;20.49;47.40
71915;BME280;60387;49.994;14.660;2023-09-30T07:41:52;98505.63;;;20.52;46.90
71915;BME280;60387;49.994;14.660;2023-09-30T07:44:25;98515.88;;;20.51;46.55
71915;BME280;60387;49.994;14.660;2023-09-30T07:46:59;98515.59;;;20.56;46.80
71915;BME280;60387;49.994;14.660;2023-09-30T07:49:32;98511.47;;;20.62;46.94
71915;BME280;60387;49.994;14.660;2023-09-30T07:52:06;98515.38;;;20.61;46.43
71915;BME280;60387;49.994;14.660;2023-09-30T07:54:39;98527.78;;;20.67;46.29
71915;BME280;60387;49.994;14.660;2023-09-30T07:57:12;98526.72;;;20.72;46.46
71915;BME280;60387;49.994;14.660;2023-09-30T07:59:46;98527.50;;;20.72;46.20
71915;BME280;60387;49.994;14.660;2023-09-30T08:02:19;98539.94;;;20.66;46.24
71915;BME280;60387;49.994;14.660;2023-09-30T08:04:52;98526.97;;;20.67;46.62
71915;BME280;60387;49.994;14.660;2023-09-30T08:07:26;98532.69;;;20.74;46.68
71915;BME280;60387;49.994;14.660;2023-09-30T08:10:00;98530.94;;;20.81;46.73
71915;BME280;60387;49.994;14.660;2023-09-30T08:12:33;98528.28;;;20.85;46.60
71915;BME280;60387;49.994;14.660;2023-09-30T08:15:07;98538.50;;;20.96;46.26
71915;BME280;60387;49.994;14.660;2023-09-30T08:17:40;98536.19;;;20.98;46.13
71915;BME280;60387;49.994;14.660;2023-09-30T08:20:13;98533.81;;;20.97;46.02
71915;BME280;60387;49.994;14.660;2023-09-30T08:22:47;98533.66;;;21.05;45.97
71915;BME280;60387;49.994;14.660;2023-09-30T08:25:20;98527.59;;;21.00;45.74
71915;BME280;60387;49.994;14.660;2023-09-30T08:27:53;98525.50;;;21.09;45.57
71915;BME280;60387;49.994;14.660;2023-09-30T08:30:26;98520.88;;;21.13;45.76
71915;BME280;60387;49.994;14.660;2023-09-30T08:33:00;98521.56;;;21.22;45.92
71915;BME280;60387;49.994;14.660;2023-09-30T08:35:37;98526.03;;;21.26;45.36
71915;BME280;60387;49.994;14.660;2023-09-30T08:38:10;98527.47;;;21.36;45.08
71915;BME280;60387;49.994;14.660;2023-09-30T08:40:44;98522.84;;;21.40;45.47
71915;BME280;60387;49.994;14.660;2023-09-30T08:43:21;98528.31;;;21.52;45.40
71915;BME280;60387;49.994;14.660;2023-09-30T08:45:56;98531.97;;;21.56;45.03
71915;BME280;60387;49.994;14.660;2023-09-30T08:48:31;98543.53;;;21.61;44.80
71915;BME280;60387;49.994;14.660;2023-09-30T08:51:05;98551.31;;;21.71;44.88
71915;BME280;60387;49.994;14.660;2023-09-30T08:53:39;98554.28;;;21.78;45.00
71915;BME280;60387;49.994;14.660;2023-09-30T08:56:13;98548.25;;;21.88;44.89
71915;BME280;60387;49.994;14.660;2023-09-30T08:58:47;98554.63;;;21.92;44.34
71915;BME280;60387;49.994;14.660;2023-09-30T09:01:21;98564.25;;;21.98;44.24
71915;BME280;60387;49.994;14.660;2023-09-30T09:03:55;98548.88;;;22.13;43.68
71915;BME280;60387;49.994;14.660;2023-09-30T09:06:28;98554.13;;;22.33;43.16
71915;BME280;60387;49.994;14.660;2023-09-30T09:11:48;98565.06;;;22.95;41.95
71915;BME280;60387;49.994;14.660;2023-09-30T09:14:40;98561.22;;;23.34;41.63
71915;BME280;60387;49.994;14.660;2023-09-30T09:17:14;98558.06;;;23.73;41.06
71915;BME280;60387;49.994;14.660;2023-09-30T09:19:59;98550.50;;;24.12;40.57
71915;BME280;60387;49.994;14.660;2023-09-30T09:22:40;98555.91;;;24.50;39.80
71915;BME280;60387;49.994;14.660;2023-09-30T09:25:13;98553.13;;;24.72;39.22
71915;BME280;60387;49.994;14.660;2023-09-30T09:27:46;98561.78;;;24.97;39.40
71915;BME280;60387;49.994;14.660;2023-09-30T09:30:24;98574.88;;;25.26;38.69
71915;BME280;60387;49.994;14.660;2023-09-30T09:35:35;98552.41;;;25.67;35.04
71915;BME280;60387;49.994;14.660;2023-09-30T09:38:09;98567.06;;;26.01;36.11
71915;BME280;60387;49.994;14.660;2023-09-30T09:40:42;98581.47;;;26.13;35.07
71915;BME280;60387;49.994;14.660;2023-09-30T09:43:15;98577.47;;;26.11;34.02
71915;BME280;60387;49.994;14.660;2023-09-30T09:45:49;98579.56;;;26.17;34.56
71915;BME280;60387;49.994;14.660;2023-09-30T09:48:23;98572.84;;;26.22;33.88
71915;BME280;60387;49.994;14.660;2023-09-30T09:50:56;98591.63;;;26.35;34.65
71915;BME280;60387;49.994;14.660;2023-09-30T09:53:30;98596.91;;;26.51;33.27
71915;BME280;60387;49.994;14.660;2023-09-30T09:56:03;98598.59;;;26.59;33.42
71915;BME280;60387;49.994;14.660;2023-09-30T09:58:37;98604.63;;;26.68;33.32
71915;BME280;60387;49.994;14.660;2023-09-30T10:01:14;98588.38;;;26.73;32.10
71915;BME280;60387;49.994;14.660;2023-09-30T10:03:48;98594.00;;;26.80;31.69
71915;BME280;60387;49.994;14.660;2023-09-30T10:06:21;98608.47;;;27.00;32.03
71915;BME280;60387;49.994;14.660;2023-09-30T10:08:56;98602.22;;;27.13;31.96
71915;BME280;60387;49.994;14.660;2023-09-30T10:11:30;98603.06;;;27.24;30.06
71915;BME280;60387;49.994;14.660;2023-09-30T10:14:04;98602.72;;;27.33;30.77
71915;BME280;60387;49.994;14.660;2023-09-30T10:19:18;98597.72;;;27.69;30.29
71915;BME280;60387;49.994;14.660;2023-09-30T10:24:51;98583.53;;;28.02;30.44
71915;BME280;60387;49.994;14.660;2023-09-30T10:40:55;98596.38;;;28.77;29.36
71915;BME280;60387;49.994;14.660;2023-09-30T10:49:15;98582.81;;;29.03;29.75
71915;BME280;60387;49.994;14.660;2023-09-30T10:51:52;98584.78;;;29.17;29.60
71915;BME280;60387;49.994;14.660;2023-09-30T10:54:33;98581.56;;;29.29;28.93
71915;BME280;60387;49.994;14.660;2023-09-30T10:57:06;98586.75;;;29.30;29.21
71915;BME280;60387;49.994;14.660;2023-09-30T10:59:43;98583.56;;;29.28;29.41
71915;BME280;60387;49.994;14.660;2023-09-30T11:02:19;98585.56;;;29.28;29.58
71915;BME280;60387;49.994;14.660;2023-09-30T11:04:53;98576.41;;;29.24;29.27
71915;BME280;60387;49.994;14.660;2023-09-30T11:07:28;98582.78;;;29.21;28.95
71915;BME280;60387;49.994;14.660;2023-09-30T11:10:02;98598.75;;;29.17;28.30
71915;BME280;60387;49.994;14.660;2023-09-30T11:12:35;98599.53;;;29.14;29.16
71915;BME280;60387;49.994;14.660;2023-09-30T11:15:09;98589.19;;;29.04;27.84
71915;BME280;60387;49.994;14.660;2023-09-30T11:17:42;98597.16;;;28.88;28.31
71915;BME280;60387;49.994;14.660;2023-09-30T11:20:16;98589.97;;;28.80;28.53
71915;BME280;60387;49.994;14.660;2023-09-30T11:22:50;98593.97;;;28.75;29.18
71915;BME280;60387;49.994;14.660;2023-09-30T11:25:23;98595.56;;;28.83;29.33
71915;BME280;60387;49.994;14.660;2023-09-30T11:28:15;98600.34;;;28.86;29.64
71915;BME280;60387;49.994;14.660;2023-09-30T11:30:56;98593.97;;;28.82;27.66
71915;BME280;60387;49.994;14.660;2023-09-30T11:33:32;98591.59;;;28.67;29.04
71915;BME280;60387;49.994;14.660;2023-09-30T11:36:05;98587.63;;;28.50;27.76
71915;BME280;60387;49.994;14.660;2023-09-30T11:38:44;98593.56;;;28.42;28.58
71915;BME280;60387;49.994;14.660;2023-09-30T11:41:18;98595.56;;;28.45;28.35
71915;BME280;60387;49.994;14.660;2023-09-30T11:44:02;98587.22;;;28.55;28.57
71915;BME280;60387;49.994;14.660;2023-09-30T11:46:53;98589.22;;;28.51;28.09
71915;BME280;60387;49.994;14.660;2023-09-30T11:49:36;98586.00;;;28.63;27.62
71915;BME280;60387;49.994;14.660;2023-09-30T11:52:11;98586.41;;;28.72;28.54
71915;BME280;60387;49.994;14.660;2023-09-30T11:54:45;98568.88;;;28.86;27.30
71915;BME280;60387;49.994;14.660;2023-09-30T11:57:18;98572.06;;;28.98;26.97
71915;BME280;60387;49.994;14.660;2023-09-30T11:59:51;98576.81;;;29.05;27.28
71915;BME280;60387;49.994;14.660;2023-09-30T12:02:25;98571.63;;;29.14;26.86
71915;BME280;60387;49.994;14.660;2023-09-30T12:04:58;98568.44;;;29.15;27.31
71915;BME280;60387;49.994;14.660;2023-09-30T12:07:31;98570.81;;;29.20;27.87
71915;BME280;60387;49.994;14.660;2023-09-30T12:10:05;98573.59;;;29.27;27.55
71915;BME280;60387;49.994;14.660;2023-09-30T12:12:38;98565.19;;;29.31;27.04
71915;BME280;60387;49.994;14.660;2023-09-30T12:15:11;98575.97;;;29.32;26.83
71915;BME280;60387;49.994;14.660;2023-09-30T12:17:45;98558.44;;;29.28;26.58
71915;BME280;60387;49.994;14.660;2023-09-30T12:20:18;98555.66;;;29.21;27.08
71915;BME280;60387;49.994;14.660;2023-09-30T12:22:51;98557.66;;;29.17;26.63
71915;BME280;60387;49.994;14.660;2023-09-30T12:25:24;98564.88;;;29.11;27.32
71915;BME280;60387;49.994;14.660;2023-09-30T12:27:58;98560.09;;;29.05;27.40
71915;BME280;60387;49.994;14.660;2023-09-30T12:30:31;98556.88;;;29.13;26.78
71915;BME280;60387;49.994;14.660;2023-09-30T12:33:04;98558.88;;;29.13;26.88
71915;BME280;60387;49.994;14.660;2023-09-30T12:35:37;98555.69;;;29.04;25.81
71915;BME280;60387;49.994;14.660;2023-09-30T12:38:11;98560.09;;;28.87;25.66
71915;BME280;60387;49.994;14.660;2023-09-30T12:40:44;98562.91;;;28.70;25.14
71915;BME280;60387;49.994;14.660;2023-09-30T12:43:17;98554.16;;;28.40;26.20
71915;BME280;60387;49.994;14.660;2023-09-30T12:45:51;98556.91;;;28.29;26.08
71915;BME280;60387;49.994;14.660;2023-09-30T12:48:24;98548.16;;;28.31;26.51
71915;BME280;60387;49.994;14.660;2023-09-30T12:50:57;98541.41;;;28.39;26.36
71915;BME280;60387;49.994;14.660;2023-09-30T12:53:30;98538.22;;;28.44;24.38
71915;BME280;60387;49.994;14.660;2023-09-30T12:56:04;98545.34;;;28.20;25.08
71915;BME280;60387;49.994;14.660;2023-09-30T12:58:37;98538.56;;;28.11;25.43
71915;BME280;60387;49.994;14.660;2023-09-30T13:01:10;98560.47;;;28.19;24.59
71915;BME280;60387;49.994;14.660;2023-09-30T13:03:44;98552.91;;;28.27;25.26
71915;BME280;60387;49.994;14.660;2023-09-30T13:06:19;98557.28;;;28.31;25.43
71915;BME280;60387;49.994;14.660;2023-09-30T13:08:52;98547.34;;;28.30;25.85
71915;BME280;60387;49.994;14.660;2023-09-30T13:11:25;98551.38;;;28.43;25.27
71915;BME280;60387;49.994;14.660;2023-09-30T13:13:58;98545.81;;;28.50;25.69
71915;BME280;60387;49.994;14.660;2023-09-30T13:16:32;98539.41;;;28.57;24.81
71915;BME280;60387;49.994;14.660;2023-09-30T13:19:05;98540.19;;;28.64;25.77
71915;BME280;60387;49.994;14.660;2023-09-30T13:21:38;98543.38;;;28.70;25.58
71915;BME280;60387;49.994;14.660;2023-09-30T13:24:11;98545.38;;;28.73;25.91
71915;BME280;60387;49.994;14.660;2023-09-30T13:26:46;98541.00;;;28.72;25.72
71915;BME280;60387;49.994;14.660;2023-09-30T13:29:19;98535.84;;;28.42;24.41
71915;BME280;60387;49.994;14.660;2023-09-30T13:31:52;98532.19;;;27.96;24.99
71915;BME280;60387;49.994;14.660;2023-09-30T13:34:26;98528.19;;;27.90;25.18
71915;BME280;60387;49.994;14.660;2023-09-30T13:36:59;98530.16;;;27.76;24.89
71915;BME280;60387;49.994;14.660;2023-09-30T13:39:32;98518.94;;;27.69;25.16
71915;BME280;60387;49.994;14.660;2023-09-30T13:42:05;98520.97;;;27.72;25.55
71915;BME280;60387;49.994;14.660;2023-09-30T13:44:38;98521.41;;;27.77;25.88
71915;BME280;60387;49.994;14.660;2023-09-30T13:47:12;98528.50;;;27.61;25.93
71915;BME280;60387;49.994;14.660;2023-09-30T13:49:45;98522.91;;;27.54;25.92
71915;BME280;60387;49.994;14.660;2023-09-30T13:52:18;98525.28;;;27.48;25.92
71915;BME280;60387;49.994;14.660;2023-09-30T13:54:51;98524.84;;;27.46;26.77